Time;durP1;ratioP1;P1;durP2;ratioP2;P2;SDS_P1;SDS_P2;PMS_P1;PMS_P2;Temp;Humidity;BMP_temperature;BMP_pressure;BME280_temperature;BME280_humidity;BME280_pressure;Samples;Min_cycle;Max_cycle;Signal;HPM_P1;HPM_P2
2022/08/03 00:02:23;;;;;;;11.57;4.10;;;19.90;99.90;;;;;;5020684;28;20382;-70
2022/08/03 00:04:49;;;;;;;13.23;4.18;;;19.90;99.90;;;;;;5054238;28;20044;-70
2022/08/03 00:07:15;;;;;;;8.32;3.75;;;19.40;99.90;;;;;;5055094;28;20571;-71
2022/08/03 00:09:40;;;;;;;9.88;4.20;;;19.20;99.90;;;;;;5036827;28;20048;-70
2022/08/03 00:12:06;;;;;;;9.13;5.07;;;19.20;99.90;;;;;;5053775;28;20041;-71
2022/08/03 00:14:32;;;;;;;8.60;3.75;;;19.30;99.90;;;;;;5054441;28;20049;-70
2022/08/03 00:16:58;;;;;;;11.50;4.05;;;19.20;99.90;;;;;;5035962;28;20045;-70
2022/08/03 00:19:23;;;;;;;10.55;4.55;;;19.20;99.90;;;;;;5036880;28;20114;-70
2022/08/03 00:21:49;;;;;;;8.32;4.00;;;19.30;99.90;;;;;;5054341;28;20053;-70
2022/08/03 00:24:15;;;;;;;9.95;5.20;;;19.20;99.90;;;;;;5053995;28;20052;-70
2022/08/03 00:26:40;;;;;;;11.48;4.50;;;19.30;99.90;;;;;;5036658;28;20068;-70
2022/08/03 00:29:06;;;;;;;11.50;4.43;;;19.10;99.90;;;;;;5054404;28;20037;-70
2022/08/03 00:31:32;;;;;;;9.20;4.20;;;19.30;99.90;;;;;;5035977;28;20094;-70
2022/08/03 00:33:57;;;;;;;8.65;4.22;;;19.30;99.90;;;;;;5054358;28;20481;-70
2022/08/03 00:36:23;;;;;;;9.05;3.92;;;19.10;99.90;;;;;;5019917;28;20120;-70
2022/08/03 00:38:49;;;;;;;10.07;4.35;;;19.30;99.90;;;;;;5053357;28;20480;-70
2022/08/03 00:41:14;;;;;;;7.30;3.63;;;19.30;99.90;;;;;;5036512;28;20108;-70
2022/08/03 00:43:40;;;;;;;9.00;3.75;;;19.20;99.90;;;;;;5036203;28;20114;-70
2022/08/03 00:46:05;;;;;;;12.18;4.57;;;19.20;99.90;;;;;;5053319;28;20037;-71
2022/08/03 00:48:31;;;;;;;10.15;4.00;;;19.20;99.90;;;;;;5036269;28;20056;-71
2022/08/03 00:50:57;;;;;;;8.88;4.13;;;19.60;99.90;;;;;;5054073;28;20088;-70
2022/08/03 00:53:24;;;;;;;8.77;3.65;;;19.10;99.90;;;;;;5035109;28;20045;-70
2022/08/03 00:55:50;;;;;;;8.60;4.47;;;19.10;99.90;;;;;;5035940;28;20048;-70
2022/08/03 00:58:15;;;;;;;10.40;3.97;;;19.10;99.90;;;;;;5036495;28;20037;-70
2022/08/03 01:00:41;;;;;;;14.40;5.07;;;19.10;99.90;;;;;;5053154;28;20147;-70
2022/08/03 01:03:09;;;;;;;10.65;4.65;;;19.70;99.90;;;;;;5036006;28;20426;-70
2022/08/03 01:05:45;;;;;;;10.70;4.28;;;19.10;99.90;;;;;;5035644;28;20489;-70
2022/08/03 01:08:17;;;;;;;13.27;4.82;;;19.00;99.90;;;;;;5053431;28;20170;-70
2022/08/03 01:11:02;;;;;;;9.93;4.20;;;19.00;99.90;;;;;;5035655;28;20052;-71
2022/08/03 01:13:50;;;;;;;11.00;4.38;;;19.10;99.90;;;;;;5034949;28;20056;-70
2022/08/03 01:16:26;;;;;;;10.75;4.57;;;18.90;99.90;;;;;;5035710;28;20048;-70
2022/08/03 01:18:59;;;;;;;8.77;4.20;;;19.00;99.90;;;;;;5073355;28;20551;-70
2022/08/03 01:21:29;;;;;;;8.20;4.03;;;19.00;99.90;;;;;;5044602;28;20056;-70
2022/08/03 01:24:21;;;;;;;7.15;3.90;;;18.90;99.90;;;;;;5034828;28;20044;-70
2022/08/03 01:27:01;;;;;;;9.30;3.58;;;18.90;99.90;;;;;;5032797;28;20108;-70
2022/08/03 01:29:36;;;;;;;13.27;4.75;;;18.90;99.90;;;;;;5016765;28;20112;-70
2022/08/03 01:32:07;;;;;;;10.05;4.47;;;18.90;99.90;;;;;;5035489;28;20599;-70
2022/08/03 01:34:40;;;;;;;13.40;5.30;;;19.10;99.90;;;;;;5052309;28;20116;-70
2022/08/03 01:37:07;;;;;;;8.85;3.53;;;18.90;99.90;;;;;;5052508;28;20041;-71
2022/08/03 01:39:36;;;;;;;8.25;3.70;;;18.90;99.90;;;;;;5034759;28;20049;-70
2022/08/03 01:42:05;;;;;;;11.48;4.18;;;19.30;99.90;;;;;;5034117;28;20060;-70
2022/08/03 01:44:40;;;;;;;10.05;4.22;;;18.90;99.90;;;;;;5035102;28;20049;-70
2022/08/03 01:47:07;;;;;;;8.32;3.45;;;19.00;99.90;;;;;;5035234;28;20116;-70
2022/08/03 01:49:38;;;;;;;6.95;3.30;;;18.80;99.90;;;;;;5050408;28;20072;-70
2022/08/03 01:52:05;;;;;;;11.35;3.70;;;19.00;99.90;;;;;;5032956;28;20041;-70
2022/08/03 01:54:35;;;;;;;7.90;3.30;;;18.80;99.90;;;;;;5015168;28;20080;-70
2022/08/03 01:57:02;;;;;;;7.53;3.20;;;18.80;99.90;;;;;;5014395;28;20556;-70
2022/08/03 01:59:31;;;;;;;7.43;3.40;;;18.90;99.90;;;;;;5032773;28;20033;-70
2022/08/03 02:01:58;;;;;;;8.13;3.20;;;18.80;99.90;;;;;;5015178;28;20041;-70
2022/08/03 02:04:26;;;;;;;8.85;3.80;;;18.70;99.90;;;;;;5031995;28;20042;-70
2022/08/03 02:06:53;;;;;;;8.52;2.80;;;18.80;99.90;;;;;;5032396;28;20045;-70
2022/08/03 02:09:21;;;;;;;10.65;3.83;;;18.70;99.90;;;;;;5014916;28;20056;-70
2022/08/03 02:11:48;;;;;;;12.35;3.60;;;18.80;99.90;;;;;;5049027;28;20177;-70
2022/08/03 02:14:15;;;;;;;6.72;3.28;;;19.20;99.90;;;;;;5052684;28;20045;-70
2022/08/03 02:16:45;;;;;;;8.98;3.47;;;;;;;;;;5033647;28;20118;-70
2022/08/03 02:19:11;;;;;;;10.45;3.97;;;;;;;;;;5052718;28;20094;-70
2022/08/03 02:21:41;;;;;;;8.13;3.00;;;;;;;;;;5052223;28;20088;-70
2022/08/03 02:24:08;;;;;;;9.25;3.67;;;;;;;;;;5017137;28;20140;-70
2022/08/03 02:26:36;;;;;;;7.15;2.80;;;;;;;;;;5034718;28;20041;-70
2022/08/03 02:29:04;;;;;;;8.20;3.75;;;;;;;;;;5034188;28;20052;-70
2022/08/03 02:31:32;;;;;;;8.75;3.00;;;;;;;;;;5051371;28;20049;-70
2022/08/03 02:34:02;;;;;;;7.80;3.58;;;;;;;;;;5034229;28;20037;-71
2022/08/03 02:36:30;;;;;;;8.43;3.13;;;;;;;;;;5051756;28;20493;-70
2022/08/03 02:38:58;;;;;;;8.75;3.35;;;;;;;;;;5033343;28;20450;-70
2022/08/03 02:41:27;;;;;;;7.15;2.80;;;;;;;;;;5034317;28;20182;-70
2022/08/03 02:43:54;;;;;;;8.88;3.35;;;;;;;;;;5051822;28;20044;-70
2022/08/03 02:46:22;;;;;;;11.93;3.55;;;;;;;;;;5051523;28;20121;-70
2022/08/03 02:48:49;;;;;;;7.65;2.97;;;;;;;;;;5033120;28;20147;-70
2022/08/03 02:51:16;;;;;;;9.35;3.75;;;;;;;;;;5017904;28;20033;-70
2022/08/03 02:53:43;;;;;;;9.35;3.63;;;;;;;;;;5032901;28;20053;-70
2022/08/03 02:56:09;;;;;;;7.45;3.15;;;;;;;;;;5034173;28;20171;-70
2022/08/03 02:58:37;;;;;;;9.68;3.00;;;;;;;;;;5033486;28;20486;-70
2022/08/03 03:01:03;;;;;;;8.95;2.85;;;;;;;;;;5051984;28;20659;-70
2022/08/03 03:03:29;;;;;;;13.05;3.60;;;;;;;;;;5033829;28;20048;-70
2022/08/03 03:05:55;;;;;;;7.55;3.38;;;;;;;;;;5032720;28;20363;-70
2022/08/03 03:08:22;;;;;;;7.63;3.08;;;;;;;;;;5034335;28;20049;-71
2022/08/03 03:10:48;;;;;;;13.38;3.17;;;;;;;;;;5033661;28;20044;-70
2022/08/03 03:13:15;;;;;;;10.40;3.45;;;;;;;;;;5051310;28;20045;-70
2022/08/03 03:15:41;;;;;;;11.75;3.22;;;;;;;;;;5051909;28;20045;-70
2022/08/03 03:18:08;;;;;;;8.23;2.80;;;;;;;;;;5051664;28;20088;-70
2022/08/03 03:20:36;;;;;;;7.88;3.03;;;;;;;;;;5029587;28;20061;-70
2022/08/03 03:23:03;;;;;;;14.55;3.63;;;;;;;;;;5030375;28;20418;-70
2022/08/03 03:25:31;;;;;;;12.88;4.05;;;;;;;;;;5031557;28;20167;-70
2022/08/03 03:27:57;;;;;;;7.47;2.65;;;;;;;;;;5029507;28;20045;-70
2022/08/03 03:30:23;;;;;;;8.63;3.10;;;;;;;;;;5031641;28;20087;-70
2022/08/03 03:32:49;;;;;;;7.43;3.40;;;;;;;;;;5030115;28;20045;-70
2022/08/03 03:35:16;;;;;;;7.88;3.00;;;;;;;;;;5031141;28;20076;-70
2022/08/03 03:37:42;;;;;;;7.38;2.80;;;;;;;;;;5031510;28;20053;-70
2022/08/03 03:40:08;;;;;;;12.65;3.25;;;;;;;;;;5030564;28;20037;-70
2022/08/03 03:42:35;;;;;;;9.32;3.53;;;;;;;;;;5030853;28;20114;-70
2022/08/03 03:45:04;;;;;;;9.98;3.05;;;;;;;;;;5031702;28;20441;-71
2022/08/03 03:47:30;;;;;;;8.55;2.65;;;;;;;;;;5031320;28;20072;-70
2022/08/03 03:49:57;;;;;;;8.73;2.78;;;;;;;;;;5030574;28;20131;-70
2022/08/03 03:52:23;;;;;;;9.75;3.35;;;;;;;;;;5029932;28;20045;-71
2022/08/03 03:54:49;;;;;;;9.65;3.13;;;;;;;;;;5030063;28;20132;-70
2022/08/03 03:57:15;;;;;;;9.77;3.67;;;;;;;;;;5031490;28;20077;-70
2022/08/03 03:59:41;;;;;;;12.88;3.35;;;;;;;;;;5030095;28;20038;-70
2022/08/03 04:02:08;;;;;;;11.30;4.60;;;;;;;;;;5034219;28;20045;-70
2022/08/03 04:12:55;;;;;;;10.55;3.35;;;;;;;;;;5034406;28;20521;-71
2022/08/03 04:15:22;;;;;;;10.77;3.55;;;;;;;;;;5017321;28;20044;-70
2022/08/03 04:17:49;;;;;;;10.23;3.10;;;;;;;;;;5032624;28;20129;-70
2022/08/03 04:20:16;;;;;;;6.25;2.80;;;;;;;;;;5034246;28;20042;-70
2022/08/03 04:22:42;;;;;;;7.15;3.33;;;;;;;;;;5054689;28;20133;-70
2022/08/03 04:25:10;;;;;;;7.55;2.90;;;;;;;;;;5036391;28;20044;-70
2022/08/03 04:27:37;;;;;;;5.68;2.92;;;;;;;;;;5036565;28;20151;-70
2022/08/03 04:30:05;;;;;;;7.05;2.92;;;;;;;;;;5035865;28;20041;-70
2022/08/03 04:32:31;;;;;;;15.07;4.22;;;;;;;;;;5054096;28;20049;-71
2022/08/03 04:34:57;;;;;;;8.90;2.97;;;;;;;;;;5054361;28;20079;-70
2022/08/03 04:37:34;;;;;;;10.88;3.08;;;;;;;;;;5035913;28;20111;-70
2022/08/03 04:40:02;;;;;;;9.50;3.38;;;;;;;;;;5054074;28;20037;-70
2022/08/03 04:42:31;;;;;;;9.52;3.20;;;;;;;;;;5036251;28;20490;-70
2022/08/03 04:44:57;;;;;;;7.88;3.53;;;;;;;;;;5035535;28;20386;-70
2022/08/03 04:47:23;;;;;;;9.73;3.40;;;;;;;;;;5036584;28;20041;-70
2022/08/03 04:49:49;;;;;;;9.60;4.32;;;;;;;;;;5035903;28;20501;-70
2022/08/03 04:52:15;;;;;;;16.17;4.03;;;;;;;;;;5019125;28;20493;-70
2022/08/03 04:54:45;;;;;;;8.07;2.83;;;;;;;;;;5036131;28;20032;-70
2022/08/03 04:57:11;;;;;;;10.00;3.50;;;;;;;;;;5054086;28;20040;-70
2022/08/03 04:59:38;;;;;;;10.35;4.00;;;;;;;;;;5035284;28;20466;-70
2022/08/03 05:02:04;;;;;;;6.88;3.20;;;;;;;;;;5053922;28;20041;-70
2022/08/03 05:04:30;;;;;;;9.77;3.70;;;;;;;;;;5053700;28;20098;-70
2022/08/03 05:06:56;;;;;;;14.00;3.97;;;;;;;;;;5034848;28;20037;-70
2022/08/03 05:09:22;;;;;;;10.10;3.58;;;;;;;;;;5035788;28;20567;-70
2022/08/03 05:11:48;;;;;;;8.27;3.65;;;;;;;;;;5035025;28;20132;-70
2022/08/03 05:14:14;;;;;;;7.88;3.17;;;;;;;;;;5035201;28;20549;-70
2022/08/03 05:16:40;;;;;;;12.45;3.65;;;;;;;;;;5053560;28;20032;-70
2022/08/03 05:19:06;;;;;;;9.02;3.38;;;;;;;;;;5019090;28;20041;-70
2022/08/03 05:21:32;;;;;;;12.38;3.58;;;;;;;;;;5034963;28;20474;-70
2022/08/03 05:23:58;;;;;;;8.10;3.45;;;;;;;;;;5035415;28;20405;-70
2022/08/03 05:26:24;;;;;;;8.68;3.58;;;;;;;;;;5052313;28;20501;-70
2022/08/03 05:28:51;;;;;;;9.95;3.65;;;;;;;;;;5035451;28;20041;-70
2022/08/03 05:31:18;;;;;;;12.02;3.28;;;;;;;;;;5053505;28;20045;-70
2022/08/03 05:33:44;;;;;;;12.77;3.85;;;;;;;;;;5052213;28;20205;-70
2022/08/03 05:36:10;;;;;;;13.70;3.35;;;;;;;;;;5035583;28;20569;-70
2022/08/03 05:38:36;;;;;;;10.20;3.53;;;;;;;;;;5052829;28;20155;-70
2022/08/03 05:41:03;;;;;;;13.18;3.63;;;;;;;;;;5034426;28;20045;-70
2022/08/03 05:43:30;;;;;;;7.88;3.28;;;;;;;;;;5035551;28;20059;-70
2022/08/03 05:45:58;;;;;;;13.45;3.70;;;;;;;;;;5035127;28;20044;-70
2022/08/03 05:48:24;;;;;;;12.27;4.38;;;;;;;;;;5052065;28;20401;-70
2022/08/03 05:50:50;;;;;;;10.68;3.92;;;;;;;;;;5035051;28;20501;-70
2022/08/03 05:53:16;;;;;;;9.18;3.53;;;;;;;;;;5052693;28;20037;-70
2022/08/03 05:55:42;;;;;;;10.73;4.18;;;;;;;;;;5034275;28;20124;-70
2022/08/03 05:58:08;;;;;;;16.30;3.83;;;;;;;;;;5035181;28;20076;-70
2022/08/03 06:00:34;;;;;;;10.10;4.00;;;;;;;;;;5034836;28;20040;-70
2022/08/03 06:03:01;;;;;;;12.35;3.92;;;;;;;;;;5017546;28;20052;-70
2022/08/03 06:05:27;;;;;;;8.77;3.95;;;;;;;;;;5052370;28;20128;-70
2022/08/03 06:07:53;;;;;;;10.00;3.40;;;;;;;;;;5052463;28;20049;-70
2022/08/03 06:10:19;;;;;;;11.82;4.07;;;;;;;;;;5052183;28;20124;-70
2022/08/03 06:12:48;;;;;;;15.82;5.22;;;;;;;;;;5034389;28;20041;-71
2022/08/03 06:15:14;;;;;;;11.88;4.75;;;;;;;;;;5034993;28;20045;-71
2022/08/03 06:17:50;;;;;;;9.65;3.55;;;;;;;;;;5051512;28;20037;-70
2022/08/03 06:20:20;;;;;;;15.82;4.45;;;;;;;;;;5034645;28;20401;-70
2022/08/03 06:22:46;;;;;;;12.77;4.40;;;;;;;;;;5033161;28;20049;-71
2022/08/03 06:25:12;;;;;;;13.65;4.53;;;;;;;;;;5052742;28;20052;-70
2022/08/03 06:27:39;;;;;;;15.65;4.40;;;;;;;;;;5034494;28;20083;-71
2022/08/03 06:30:06;;;;;;;11.57;4.18;;;;;;;;;;5051490;28;20465;-71
2022/08/03 06:32:32;;;;;;;16.17;4.45;;;;;;;;;;5034007;28;20053;-70
2022/08/03 06:34:58;;;;;;;12.80;4.45;;;;;;;;;;5017855;28;20170;-71
2022/08/03 06:37:25;;;;;;;10.93;5.05;;;;;;;;;;5051586;28;20044;-70
2022/08/03 06:39:52;;;;;;;13.63;4.70;;;;;;;;;;5052190;28;20051;-70
2022/08/03 06:42:18;;;;;;;9.13;4.13;;;;;;;;;;5052379;28;20037;-70
2022/08/03 06:44:44;;;;;;;12.35;4.95;;;;;;;;;;5051099;28;20106;-71
2022/08/03 06:47:10;;;;;;;15.82;4.85;;;;;;;;;;5034396;28;20049;-71
2022/08/03 06:49:37;;;;;;;12.77;5.22;;;;;;;;;;5051799;28;20052;-71
2022/08/03 06:52:03;;;;;;;13.32;5.18;;;;;;;;;;5033240;28;20057;-71
2022/08/03 06:54:29;;;;;;;10.57;5.32;;;;;;;;;;5034063;28;20048;-70
2022/08/03 06:56:55;;;;;;;15.00;5.57;;;;;;;;;;5034106;28;20080;-71
2022/08/03 06:59:21;;;;;;;15.15;5.72;;;;;;;;;;5051247;28;20446;-70
2022/08/03 07:01:47;;;;;;;16.90;5.90;;;;;;;;;;5051518;28;20077;-70
2022/08/03 07:04:13;;;;;;;15.35;6.47;;;;;;;;;;5051941;28;20044;-71
2022/08/03 07:06:39;;;;;;;13.95;4.55;;;;;;;;;;5051161;28;20095;-71
2022/08/03 07:09:05;;;;;;;14.75;6.20;;;;;;;;;;5017446;28;20095;-70
2022/08/03 07:11:31;;;;;;;9.05;5.43;;;;;;;;;;5034116;28;20112;-70
2022/08/03 07:13:57;;;;;;;17.73;5.80;;;;;;;;;;5050841;28;20048;-70
2022/08/03 07:16:23;;;;;;;13.77;6.10;;;;;;;;;;5051048;28;20090;-73
2022/08/03 07:18:49;;;;;;;11.80;6.18;;;;;;;;;;5041269;28;20041;-69
2022/08/03 07:21:16;;;;;;;12.48;5.60;;;;;;;;;;5038718;28;20060;-69
2022/08/03 07:23:41;;;;;;;14.07;5.28;;;21.40;99.90;;;;;;4997910;28;20085;-68
2022/08/03 07:26:07;;;;;;;17.42;5.43;;;21.40;99.90;;;;;;5029710;28;20083;-69
2022/08/03 07:28:33;;;;;;;10.82;4.95;;;21.40;99.90;;;;;;5032058;28;20056;-65
2022/08/03 07:30:59;;;;;;;13.25;5.20;;;21.60;99.90;;;;;;5016894;28;20037;-65
2022/08/03 07:33:24;;;;;;;15.32;5.50;;;21.60;99.90;;;;;;5029282;28;20044;-66
2022/08/03 07:35:50;;;;;;;17.00;5.80;;;21.60;99.90;;;;;;5033720;28;20053;-66
2022/08/03 07:38:16;;;;;;;18.83;7.30;;;21.60;99.90;;;;;;5035459;28;20047;-66
2022/08/03 07:40:42;;;;;;;13.10;5.75;;;;;;;;;;4998351;28;20525;-67
2022/08/03 07:43:09;;;;;;;14.82;5.93;;;;;;;;;;5033160;28;20049;-67
2022/08/03 07:45:35;;;;;;;15.57;5.70;;;;;;;;;;5026933;28;20052;-67
2022/08/03 07:48:00;;;;;;;14.80;6.30;;;22.40;99.90;;;;;;5051707;28;20048;-67
2022/08/03 07:50:26;;;;;;;12.65;5.10;;;22.50;99.90;;;;;;5052565;28;20041;-66
2022/08/03 07:52:54;;;;;;;12.38;4.97;;;;;;;;;;5034513;28;20041;-66
2022/08/03 07:55:24;;;;;;;16.95;6.05;;;;;;;;;;5026935;28;20102;-67
2022/08/03 07:58:11;;;;;;;14.73;5.50;;;;;;;;;;5027719;28;20041;-67
2022/08/03 08:00:37;;;;;;;13.80;5.53;;;;;;;;;;5051123;28;20040;-68
2022/08/03 08:03:03;;;;;;;13.88;5.85;;;;;;;;;;5033276;28;20045;-68
2022/08/03 08:05:29;;;;;;;17.40;6.60;;;;;;;;;;5052792;28;20048;-69
2022/08/03 08:07:55;;;;;;;15.60;7.35;;;;;;;;;;5039223;28;20048;-68
2022/08/03 08:10:22;;;;;;;15.75;6.03;;;;;;;;;;5056839;28;20048;-68
2022/08/03 08:12:48;;;;;;;18.58;7.22;;;;;;;;;;5033050;28;20549;-68
2022/08/03 08:15:14;;;;;;;15.43;6.35;;;;;;;;;;5016408;28;20045;-68
2022/08/03 08:18:01;;;;;;;22.05;7.20;;;;;;;;;;5042838;28;20041;-68
2022/08/03 08:20:28;;;;;;;16.73;7.85;;;;;;;;;;5051431;28;20120;-68
2022/08/03 08:22:56;;;;;;;15.75;8.20;;;;;;;;;;5049996;28;20520;-68
2022/08/03 08:25:22;;;;;;;15.10;7.57;;;;;;;;;;5034570;28;20060;-69
2022/08/03 08:27:48;;;;;;;10.70;6.65;;;;;;;;;;5071496;28;20091;-69
2022/08/03 08:30:16;;;;;;;17.23;8.57;;;;;;;;;;5062772;28;20048;-69
2022/08/03 08:32:42;;;;;;;12.32;6.60;;;;;;;;;;5051018;28;20061;-69
2022/08/03 08:35:09;;;;;;;14.50;7.13;;;;;;;;;;5033434;28;20409;-69
2022/08/03 08:37:35;;;;;;;12.98;7.22;;;;;;;;;;5024823;28;20512;-69
2022/08/03 08:40:01;;;;;;;19.67;6.82;;;;;;;;;;5032226;28;20051;-68
2022/08/03 08:42:27;;;;;;;17.45;7.75;;;;;;;;;;5051457;28;20047;-68
2022/08/03 08:44:54;;;;;;;15.13;6.55;;;;;;;;;;5051004;28;20123;-69
2022/08/03 08:47:23;;;;;;;15.07;7.97;;;;;;;;;;5049920;28;20035;-67
2022/08/03 08:49:53;;;;;;;15.65;7.38;;;;;;;;;;5033068;28;20040;-67
2022/08/03 08:52:24;;;;;;;19.73;7.70;;;;;;;;;;5059099;28;20041;-66
2022/08/03 08:54:51;;;;;;;22.45;8.00;;;;;;;;;;5033193;28;20037;-65
2022/08/03 08:57:18;;;;;;;19.90;9.00;;;;;;;;;;5050480;28;20044;-66
2022/08/03 08:59:44;;;;;;;19.13;8.07;;;;;;;;;;5031918;28;20118;-66
2022/08/03 09:02:10;;;;;;;12.82;7.90;;;;;;;;;;5027189;28;20041;-66
2022/08/03 09:04:38;;;;;;;16.45;9.27;;;;;;;;;;5046088;28;20068;-67
2022/08/03 09:07:04;;;;;;;15.43;9.45;;;;;;;;;;5049631;28;20779;-67
2022/08/03 09:09:31;;;;;;;22.20;9.73;;;;;;;;;;5032473;28;20047;-67
2022/08/03 09:11:57;;;;;;;18.45;9.48;;;;;;;;;;5032038;28;20045;-65
2022/08/03 09:14:23;;;;;;;17.08;9.00;;;;;;;;;;5033023;28;20497;-65
2022/08/03 09:17:02;;;;;;;16.98;9.57;;;;;;;;;;5050772;28;20429;-65
2022/08/03 09:19:32;;;;;;;17.63;10.27;;;;;;;;;;5050401;28;20044;-66
2022/08/03 09:22:08;;;;;;;19.15;9.27;;;;;;;;;;5065262;28;20520;-66
2022/08/03 09:24:34;;;;;;;18.25;9.43;;;;;;;;;;5020954;28;20044;-66
2022/08/03 09:27:00;;;;;;;23.08;10.15;;;;;;;;;;5052543;28;20036;-66
2022/08/03 09:29:31;;;;;;;17.52;11.23;;;;;;;;;;5034864;28;20041;-66
2022/08/03 09:32:01;;;;;;;15.15;10.65;;;;;;;;;;5052799;28;20044;-66
2022/08/03 09:34:27;;;;;;;20.48;10.90;;;;;;;;;;5052454;28;20432;-66
2022/08/03 09:36:54;;;;;;;20.33;10.18;;;;;;;;;;5066080;28;20489;-66
2022/08/03 09:39:30;;;;;;;20.58;11.10;;;;;;;;;;5069693;28;20037;-65
2022/08/03 10:13:41;;;;;;;26.83;12.05;;;;;;;;;;5039374;28;20060;-70
2022/08/03 10:16:07;;;;;;;19.02;10.68;;;;;;;;;;5051356;28;20043;-66
2022/08/03 10:18:34;;;;;;;20.92;10.93;;;;;;;;;;5033609;28;20175;-64
2022/08/03 10:21:04;;;;;;;21.55;11.32;;;;;;;;;;5034532;28;20445;-63
2022/08/03 10:23:33;;;;;;;22.08;11.23;;;;;;;;;;5051576;28;20490;-63
2022/08/03 10:26:02;;;;;;;20.67;11.02;;;;;;;;;;5034896;28;20505;-66
2022/08/03 10:28:33;;;;;;;23.63;11.40;;;;;;;;;;5018343;28;20045;-62
2022/08/03 10:30:59;;;;;;;22.02;11.30;;;;;;;;;;5051306;28;20482;-63
2022/08/03 10:33:27;;;;;;;30.00;12.35;;;;;;;;;;5033588;28;20033;-63
2022/08/03 10:35:57;;;;;;;18.45;11.20;;;;;;;;;;5033393;28;20098;-69
2022/08/03 10:38:32;;;;;;;22.90;10.23;;;;;;;;;;5032448;28;20037;-68
2022/08/03 10:40:58;;;;;;;19.98;12.20;;;;;;;;;;5028301;28;20445;-73
2022/08/03 10:43:27;;;;;;;22.90;10.73;;;;;;;;;;5014352;28;20053;-72
2022/08/03 10:45:53;;;;;;;24.55;12.43;;;;;;;;;;5031844;28;20107;-72
2022/08/03 10:48:19;;;;;;;19.98;11.75;;;;;;;;;;5032150;28;20521;-69
2022/08/03 10:50:46;;;;;;;23.00;11.95;;;;;;;;;;5030992;28;20052;-72
2022/08/03 10:53:12;;;;;;;20.38;12.43;;;;;;;;;;5014572;28;20499;-69
2022/08/03 10:58:38;;;;;;;27.17;13.20;;;;;;;;;;5030076;28;20053;-74
2022/08/03 11:01:08;;;;;;;20.65;12.68;;;;;;;;;;5014170;28;20491;-70
2022/08/03 11:03:54;;;;;;;17.73;10.93;;;;;;;;;;5031761;28;20484;-70
2022/08/03 11:06:23;;;;;;;19.73;11.25;;;;;;;;;;5014411;28;20372;-73
2022/08/03 11:08:50;;;;;;;23.23;10.77;;;;;;;;;;4997989;28;20073;-71
2022/08/03 11:11:16;;;;;;;18.67;10.18;;;;;;;;;;5016669;28;20049;-68
2022/08/03 11:13:57;;;;;;;23.17;11.60;;;;;;;;;;5018157;28;20126;-70
2022/08/03 11:16:26;;;;;;;19.52;10.80;;;;;;;;;;5018222;28;20041;-71
2022/08/03 11:18:59;;;;;;;18.13;11.32;;;;;;;;;;5017319;28;20095;-73
2022/08/03 11:21:44;;;;;;;19.30;11.27;;;;;;;;;;5017600;28;20053;-69
2022/08/03 11:24:10;;;;;;;23.55;10.60;;;;;;;;;;5018723;28;20633;-76
2022/08/03 11:26:36;;;;;;;20.52;9.95;;;;;;;;;;5034875;28;20041;-69
2022/08/03 11:29:20;;;;;;;20.40;10.23;;;;;;;;;;5035845;28;20083;-71
2022/08/03 11:31:47;;;;;;;21.90;10.70;;;;;;;;;;5017560;28;20069;-71
2022/08/03 11:34:14;;;;;;;23.55;11.80;;;;;;;;;;5017295;28;20508;-71
2022/08/03 11:36:59;;;;;;;21.33;11.85;;;;;;;;;;5018046;28;20076;-70
2022/08/03 11:39:43;;;;;;;21.40;10.57;;;;;;;;;;5034975;28;20064;-74
2022/08/03 11:42:22;;;;;;;26.05;11.05;;;;;;;;;;5017981;28;20490;-73
2022/08/03 11:44:49;;;;;;;21.20;11.10;;;;;;;;;;5017591;28;20054;-74
2022/08/03 11:47:16;;;;;;;18.73;9.90;;;25.50;99.90;;;;;;5017136;28;20056;-72
2022/08/03 11:49:53;;;;;;;22.33;11.35;;;25.50;99.90;;;;;;5017353;28;20064;-72
2022/08/03 11:52:20;;;;;;;23.58;10.50;;;25.50;99.90;;;;;;5017905;28;20041;-72
2022/08/03 11:54:50;;;;;;;17.92;10.10;;;25.50;99.90;;;;;;5034297;28;20033;-72
2022/08/03 11:57:31;;;;;;;18.15;10.43;;;25.40;99.90;;;;;;5017959;28;20050;-72
2022/08/03 11:59:58;;;;;;;19.27;9.35;;;;;;;;;;5017680;28;20042;-74
2022/08/03 12:02:24;;;;;;;19.63;11.63;;;25.50;99.90;;;;;;5034464;28;20045;-72
2022/08/03 12:05:00;;;;;;;15.43;9.82;;;25.60;99.90;;;;;;5000641;28;20052;-72
2022/08/03 12:07:29;;;;;;;16.13;9.32;;;;;;;;;;5016546;28;20052;-72
2022/08/03 12:10:08;;;;;;;20.55;11.25;;;;;;;;;;5017128;28;20068;-73
2022/08/03 12:12:34;;;;;;;16.85;9.98;;;;;;;;;;5034730;28;20048;-71
2022/08/03 12:15:01;;;;;;;17.60;11.05;;;;;;;;;;5016268;28;20077;-71
2022/08/03 12:17:37;;;;;;;19.55;11.00;;;;;;;;;;5017013;28;20034;-72
2022/08/03 12:20:04;;;;;;;23.80;11.82;;;;;;;;;;5016942;28;20077;-73
2022/08/03 12:22:32;;;;;;;20.08;11.15;;;;;;;;;;5015685;28;20054;-74
2022/08/03 12:24:58;;;;;;;18.70;10.52;;;;;;;;;;5017342;28;20461;-75
2022/08/03 12:27:25;;;;;;;20.63;12.63;;;;;;;;;;5029447;28;20052;-70
2022/08/03 12:29:55;;;;;;;25.92;10.50;;;;;;;;;;5051412;28;20044;-64
2022/08/03 12:32:21;;;;;;;19.63;9.68;;;;;;;;;;5065555;28;20539;-65
2022/08/03 12:34:48;;;;;;;20.88;10.27;;;;;;;;;;5073913;28;20047;-65
2022/08/03 12:37:24;;;;;;;19.50;10.68;;;;;;;;;;5038464;28;20048;-65
2022/08/03 12:39:58;;;;;;;20.88;11.18;;;;;;;;;;5054316;28;20059;-65
2022/08/03 12:42:36;;;;;;;19.58;10.98;;;;;;;;;;5035424;28;20044;-68
2022/08/03 12:45:26;;;;;;;17.98;11.02;;;25.90;99.90;;;;;;5035324;28;20044;-66
2022/08/03 12:48:00;;;;;;;19.75;11.07;;;26.10;99.90;;;;;;5053933;28;20036;-67
2022/08/03 12:50:32;;;;;;;20.60;9.75;;;26.40;99.90;;;;;;5042997;28;20445;-65
2022/08/03 12:52:59;;;;;;;20.52;11.57;;;26.20;99.90;;;;;;5058302;28;20052;-65
2022/08/03 12:55:32;;;;;;;21.20;11.38;;;;;;;;;;5033343;28;20492;-66
2022/08/03 12:57:59;;;;;;;18.73;11.35;;;26.20;99.90;;;;;;5049724;28;20490;-66
2022/08/03 13:00:26;;;;;;;18.98;11.07;;;26.30;99.90;;;;;;5050841;28;20116;-66
2022/08/03 13:03:01;;;;;;;16.50;10.88;;;;;;;;;;5033096;28;20052;-67
2022/08/03 13:05:31;;;;;;;19.38;10.45;;;;;;;;;;5049804;28;20048;-66
2022/08/03 13:07:57;;;;;;;17.60;10.57;;;;;;;;;;5050243;28;20056;-66
2022/08/03 13:10:30;;;;;;;18.67;10.25;;;;;;;;;;5044506;28;20128;-67
2022/08/03 13:12:58;;;;;;;15.02;8.95;;;;;;;;;;5052886;28;20469;-65
2022/08/03 13:15:28;;;;;;;22.00;9.85;;;;;;;;;;5051173;28;20049;-65
2022/08/03 13:17:58;;;;;;;19.20;9.38;;;;;;;;;;5032604;28;20049;-64
2022/08/03 13:20:27;;;;;;;24.17;9.55;;;;;;;;;;5033057;28;20402;-63
2022/08/03 13:22:57;;;;;;;27.52;10.98;;;;;;;;;;5039074;28;20099;-63
2022/08/03 13:25:23;;;;;;;22.15;10.13;;;26.50;99.90;;;;;;5033747;28;20059;-63
2022/08/03 13:27:52;;;;;;;22.20;9.23;;;;;;;;;;5045019;28;20541;-63
2022/08/03 13:30:18;;;;;;;23.60;8.20;;;;;;;;;;5017142;28;20044;-63
2022/08/03 13:32:44;;;;;;;17.42;8.13;;;;;;;;;;5048026;28;20037;-66
2022/08/03 13:35:10;;;;;;;20.60;8.55;;;;;;;;;;5014858;28;20041;-65
2022/08/03 13:37:40;;;;;;;22.98;10.13;;;;;;;;;;5050184;28;20068;-65
2022/08/03 13:40:11;;;;;;;19.13;9.63;;;;;;;;;;5036950;28;20052;-66
2022/08/03 13:42:40;;;;;;;17.40;9.15;;;;;;;;;;5031860;28;20098;-66
2022/08/03 13:45:10;;;;;;;14.98;7.75;;;;;;;;;;5031989;28;20052;-66
2022/08/03 13:47:37;;;;;;;17.50;8.45;;;;;;;;;;5043419;28;20247;-66
2022/08/03 13:50:06;;;;;;;19.88;9.13;;;;;;;;;;5049986;28;20076;-65
2022/08/03 13:52:36;;;;;;;21.05;10.35;;;;;;;;;;5050238;28;20056;-65
2022/08/03 13:55:06;;;;;;;16.55;9.10;;;;;;;;;;5056279;28;20495;-66
2022/08/03 13:57:34;;;;;;;20.02;8.40;;;;;;;;;;5049608;28;20044;-65
2022/08/03 14:00:01;;;;;;;16.83;9.05;;;;;;;;;;5048866;28;20127;-66
2022/08/03 14:02:28;;;;;;;23.60;9.88;;;;;;;;;;5049707;28;20462;-64
2022/08/03 14:04:55;;;;;;;19.60;10.27;;;;;;;;;;5031804;28;20052;-64
2022/08/03 14:07:21;;;;;;;17.08;9.13;;;;;;;;;;5030892;28;20134;-65
2022/08/03 14:09:47;;;;;;;22.10;9.20;;;;;;;;;;5031656;28;20048;-65
2022/08/03 14:12:13;;;;;;;18.10;9.75;;;;;;;;;;5028463;28;20047;-65
2022/08/03 14:14:40;;;;;;;22.75;11.00;;;;;;;;;;5051224;28;20041;-65
2022/08/03 14:17:08;;;;;;;19.70;9.20;;;;;;;;;;5033332;28;20037;-63
2022/08/03 14:19:34;;;;;;;36.65;17.00;;;;;;;;;;5052248;28;20033;-63
2022/08/03 14:22:00;;;;;;;18.58;10.07;;;27.30;99.90;;;;;;5029992;28;20133;-62
2022/08/03 14:24:26;;;;;;;15.23;9.05;;;27.40;99.90;;;;;;5030692;28;20116;-62
2022/08/03 14:26:53;;;;;;;18.83;9.40;;;;;;;;;;5032191;28;20121;-62
2022/08/03 14:29:18;;;;;;;16.65;8.52;;;27.70;99.90;;;;;;5026221;28;20042;-62
2022/08/03 14:31:47;;;;;;;17.77;7.88;;;;;;;;;;5022693;28;20061;-63
2022/08/03 14:34:18;;;;;;;25.75;8.60;;;;;;;;;;5016302;28;20049;-63
2022/08/03 14:36:46;;;;;;;17.80;9.32;;;27.90;99.90;;;;;;5030348;28;20039;-64
2022/08/03 14:39:13;;;;;;;19.42;8.40;;;;;;;;;;5032174;28;20494;-64
2022/08/03 14:41:40;;;;;;;18.90;7.10;;;;;;;;;;5031348;28;20041;-63
2022/08/03 14:44:06;;;;;;;15.10;8.55;;;;;;;;;;5020964;28;20080;-64
2022/08/03 14:46:32;;;;;;;15.40;8.15;;;;;;;;;;5025312;28;20436;-65
2022/08/03 14:48:58;;;;;;;15.68;8.80;;;28.10;99.90;;;;;;5027134;28;20056;-65